sensor_id;sensor_type;location;lat;lon;timestamp;pressure;altitude;pressure_sealevel;temperature;humidity
52319;BME280;38258;51.148;14.068;2023-05-20T00:00:31;99067.66;;;9.55;100.00
52319;BME280;38258;51.148;14.068;2023-05-20T00:02:58;99076.38;;;9.54;100.00
52319;BME280;38258;51.148;14.068;2023-05-20T00:05:26;99070.41;;;9.43;100.00
52319;BME280;38258;51.148;14.068;2023-05-20T00:07:53;99063.38;;;9.46;100.00
52319;BME280;38258;51.148;14.068;2023-05-20T00:10:19;99069.63;;;9.36;100.00
52319;BME280;38258;51.148;14.068;2023-05-20T00:12:46;99076.56;;;9.36;100.00
52319;BME280;38258;51.148;14.068;2023-05-20T00:15:12;99070.56;;;9.30;100.00
52319;BME280;38258;51.148;14.068;2023-05-20T00:17:39;99068.03;;;9.23;100.00
52319;BME280;38258;51.148;14.068;2023-05-20T00:20:06;99072.44;;;9.21;100.00
52319;BME280;38258;51.148;14.068;2023-05-20T00:22:34;99064.72;;;9.08;100.00
52319;BME280;38258;51.148;14.068;2023-05-20T00:25:01;99063.84;;;9.08;100.00
52319;BME280;38258;51.148;14.068;2023-05-20T00:27:28;99063.00;;;9.07;100.00
52319;BME280;38258;51.148;14.068;2023-05-20T00:29:54;99059.59;;;9.00;100.00
52319;BME280;38258;51.148;14.068;2023-05-20T00:32:21;99056.16;;;8.98;100.00
52319;BME280;38258;51.148;14.068;2023-05-20T00:34:54;99060.53;;;8.95;100.00
52319;BME280;38258;51.148;14.068;2023-05-20T00:37:21;99052.75;;;8.90;100.00
52319;BME280;38258;51.148;14.068;2023-05-20T00:39:49;99049.34;;;8.83;100.00
52319;BME280;38258;51.148;14.068;2023-05-20T00:42:19;99046.78;;;8.80;100.00
52319;BME280;38258;51.148;14.068;2023-05-20T00:44:46;99044.19;;;8.75;100.00
52319;BME280;38258;51.148;14.068;2023-05-20T00:47:14;99045.94;;;8.75;100.00
52319;BME280;38258;51.148;14.068;2023-05-20T00:49:41;99043.34;;;8.73;100.00
52319;BME280;38258;51.148;14.068;2023-05-20T00:52:07;99040.75;;;8.72;100.00
52319;BME280;38258;51.148;14.068;2023-05-20T00:54:34;99039.88;;;8.74;100.00
52319;BME280;38258;51.148;14.068;2023-05-20T00:57:04;99040.72;;;8.78;100.00
52319;BME280;38258;51.148;14.068;2023-05-20T00:59:32;99048.50;;;8.83;100.00
52319;BME280;38258;51.148;14.068;2023-05-20T01:01:58;99046.81;;;8.77;100.00
52319;BME280;38258;51.148;14.068;2023-05-20T01:04:25;99056.31;;;8.80;100.00
52319;BME280;38258;51.148;14.068;2023-05-20T01:06:52;99059.88;;;8.72;100.00
52319;BME280;38258;51.148;14.068;2023-05-20T01:09:20;99063.34;;;8.76;100.00
52319;BME280;38258;51.148;14.068;2023-05-20T01:11:49;99059.06;;;8.67;100.00
52319;BME280;38258;51.148;14.068;2023-05-20T01:14:20;99054.72;;;8.68;100.00
52319;BME280;38258;51.148;14.068;2023-05-20T01:16:52;99060.75;;;8.73;100.00
52319;BME280;38258;51.148;14.068;2023-05-20T01:19:26;99054.72;;;8.69;100.00
52319;BME280;38258;51.148;14.068;2023-05-20T01:21:59;99043.41;;;8.69;100.00
52319;BME280;38258;51.148;14.068;2023-05-20T01:24:28;99046.84;;;8.71;100.00
52319;BME280;38258;51.148;14.068;2023-05-20T01:26:55;99053.00;;;8.68;100.00
52319;BME280;38258;51.148;14.068;2023-05-20T01:29:22;99053.84;;;8.67;100.00
52319;BME280;38258;51.148;14.068;2023-05-20T01:31:50;99044.25;;;8.71;100.00
52319;BME280;38258;51.148;14.068;2023-05-20T01:34:18;99036.41;;;8.71;100.00
52319;BME280;38258;51.148;14.068;2023-05-20T01:36:47;99044.25;;;8.72;100.00
52319;BME280;38258;51.148;14.068;2023-05-20T01:39:15;99054.59;;;8.79;100.00
52319;BME280;38258;51.148;14.068;2023-05-20T01:41:44;99053.72;;;8.80;100.00
52319;BME280;38258;51.148;14.068;2023-05-20T01:44:11;99058.84;;;8.89;100.00
52319;BME280;38258;51.148;14.068;2023-05-20T01:46:38;99056.31;;;8.83;100.00
52319;BME280;38258;51.148;14.068;2023-05-20T01:49:05;99056.31;;;8.83;100.00
52319;BME280;38258;51.148;14.068;2023-05-20T01:51:32;99064.16;;;8.83;100.00
52319;BME280;38258;51.148;14.068;2023-05-20T01:53:59;99058.03;;;8.82;100.00
52319;BME280;38258;51.148;14.068;2023-05-20T01:56:26;99057.19;;;8.80;100.00
52319;BME280;38258;51.148;14.068;2023-05-20T01:58:54;99060.66;;;8.82;100.00
52319;BME280;38258;51.148;14.068;2023-05-20T02:01:23;99060.69;;;8.79;100.00
52319;BME280;38258;51.148;14.068;2023-05-20T02:03:50;99052.88;;;8.79;100.00
52319;BME280;38258;51.148;14.068;2023-05-20T02:06:16;99058.03;;;8.82;100.00
52319;BME280;38258;51.148;14.068;2023-05-20T02:08:43;99054.59;;;8.79;100.00
52319;BME280;38258;51.148;14.068;2023-05-20T02:11:10;99048.50;;;8.81;100.00
52319;BME280;38258;51.148;14.068;2023-05-20T02:13:37;99058.09;;;8.79;100.00
52319;BME280;38258;51.148;14.068;2023-05-20T02:16:06;99055.47;;;8.79;100.00
52319;BME280;38258;51.148;14.068;2023-05-20T02:18:33;99058.09;;;8.79;100.00
52319;BME280;38258;51.148;14.068;2023-05-20T02:21:01;99063.31;;;8.77;100.00
52319;BME280;38258;51.148;14.068;2023-05-20T02:23:28;99067.56;;;8.86;100.00
52319;BME280;38258;51.148;14.068;2023-05-20T02:25:57;99064.16;;;8.83;100.00
52319;BME280;38258;51.148;14.068;2023-05-20T02:28:24;99069.38;;;8.81;100.00
52319;BME280;38258;51.148;14.068;2023-05-20T02:30:50;99060.66;;;8.81;100.00
52319;BME280;38258;51.148;14.068;2023-05-20T02:33:19;99061.44;;;8.90;100.00
52319;BME280;38258;51.148;14.068;2023-05-20T02:35:45;99055.31;;;8.95;100.00
52319;BME280;38258;51.148;14.068;2023-05-20T02:38:13;99063.19;;;8.91;100.00
52319;BME280;38258;51.148;14.068;2023-05-20T02:40:43;99063.09;;;8.99;100.00
52319;BME280;38258;51.148;14.068;2023-05-20T02:43:10;99063.22;;;8.87;100.00
52319;BME280;38258;51.148;14.068;2023-05-20T02:45:36;99062.25;;;8.94;100.00
52319;BME280;38258;51.148;14.068;2023-05-20T02:48:03;99058.72;;;9.00;100.00
52319;BME280;38258;51.148;14.068;2023-05-20T02:50:32;99063.97;;;8.98;100.00
52319;BME280;38258;51.148;14.068;2023-05-20T02:52:58;99047.50;;;8.93;100.00
52319;BME280;38258;51.148;14.068;2023-05-20T02:55:25;99050.09;;;8.93;100.00
52319;BME280;38258;51.148;14.068;2023-05-20T02:57:53;99046.63;;;8.93;100.00
52319;BME280;38258;51.148;14.068;2023-05-20T03:00:21;99048.41;;;8.90;100.00
52319;BME280;38258;51.148;14.068;2023-05-20T03:02:48;99044.00;;;8.96;100.00
52319;BME280;38258;51.148;14.068;2023-05-20T03:05:15;99031.03;;;8.88;100.00
52319;BME280;38258;51.148;14.068;2023-05-20T03:07:43;99034.47;;;8.91;100.00
52319;BME280;38258;51.148;14.068;2023-05-20T03:10:10;99030.19;;;8.84;100.00
52319;BME280;38258;51.148;14.068;2023-05-20T03:12:38;99013.69;;;8.81;100.00
52319;BME280;38258;51.148;14.068;2023-05-20T03:15:06;99010.25;;;8.80;100.00
52319;BME280;38258;51.148;14.068;2023-05-20T03:17:34;99016.31;;;8.81;100.00
52319;BME280;38258;51.148;14.068;2023-05-20T03:20:01;99010.16;;;8.89;100.00
52319;BME280;38258;51.148;14.068;2023-05-20T03:22:28;99007.53;;;8.89;100.00
52319;BME280;38258;51.148;14.068;2023-05-20T03:24:56;99012.72;;;8.91;100.00
52319;BME280;38258;51.148;14.068;2023-05-20T03:27:24;99011.81;;;8.95;100.00
52319;BME280;38258;51.148;14.068;2023-05-20T03:29:51;99011.75;;;9.01;100.00
52319;BME280;38258;51.148;14.068;2023-05-20T03:32:19;99018.69;;;9.04;100.00
52319;BME280;38258;51.148;14.068;2023-05-20T03:34:46;99016.88;;;9.08;100.00
52319;BME280;38258;51.148;14.068;2023-05-20T03:37:13;99011.75;;;9.00;100.00
52319;BME280;38258;51.148;14.068;2023-05-20T03:39:39;99016.03;;;9.05;100.00
52319;BME280;38258;51.148;14.068;2023-05-20T03:42:08;99012.44;;;9.14;100.00
52319;BME280;38258;51.148;14.068;2023-05-20T03:44:35;99011.56;;;9.18;100.00
52319;BME280;38258;51.148;14.068;2023-05-20T03:47:02;99007.97;;;9.26;100.00
52319;BME280;38258;51.148;14.068;2023-05-20T03:49:29;99014.06;;;9.23;100.00
52319;BME280;38258;51.148;14.068;2023-05-20T03:51:56;99019.34;;;9.22;100.00
52319;BME280;38258;51.148;14.068;2023-05-20T03:54:23;99009.69;;;9.27;100.00
52319;BME280;38258;51.148;14.068;2023-05-20T03:56:51;99020.88;;;9.37;100.00
52319;BME280;38258;51.148;14.068;2023-05-20T03:59:19;99012.19;;;9.34;100.00
52319;BME280;38258;51.148;14.068;2023-05-20T04:01:46;99025.97;;;9.47;100.00
52319;BME280;38258;51.148;14.068;2023-05-20T04:04:13;99032.19;;;9.37;100.00
52319;BME280;38258;51.148;14.068;2023-05-20T04:06:40;99025.16;;;9.42;100.00
52319;BME280;38258;51.148;14.068;2023-05-20T04:09:07;99028.69;;;9.40;100.00
52319;BME280;38258;51.148;14.068;2023-05-20T04:11:34;99026.06;;;9.40;100.00
52319;BME280;38258;51.148;14.068;2023-05-20T04:14:01;99033.81;;;9.47;100.00
52319;BME280;38258;51.148;14.068;2023-05-20T04:16:29;99032.81;;;9.53;100.00
52319;BME280;38258;51.148;14.068;2023-05-20T04:18:56;99029.53;;;9.39;100.00
52319;BME280;38258;51.148;14.068;2023-05-20T04:21:23;99031.25;;;9.41;100.00
52319;BME280;38258;51.148;14.068;2023-05-20T04:23:50;99026.94;;;9.39;100.00
52319;BME280;38258;51.148;14.068;2023-05-20T04:26:17;99025.09;;;9.47;100.00
52319;BME280;38258;51.148;14.068;2023-05-20T04:28:45;99012.97;;;9.43;100.00
52319;BME280;38258;51.148;14.068;2023-05-20T04:31:13;99013.03;;;9.38;100.00
52319;BME280;38258;51.148;14.068;2023-05-20T04:33:41;99022.38;;;9.53;100.00
52319;BME280;38258;51.148;14.068;2023-05-20T04:36:10;99021.53;;;9.53;100.00
52319;BME280;38258;51.148;14.068;2023-05-20T04:38:40;99021.38;;;9.64;100.00
52319;BME280;38258;51.148;14.068;2023-05-20T04:41:08;99027.53;;;9.59;100.00
52319;BME280;38258;51.148;14.068;2023-05-20T04:43:35;99014.59;;;9.52;100.00
52319;BME280;38258;51.148;14.068;2023-05-20T04:46:04;99031.88;;;9.62;100.00
52319;BME280;38258;51.148;14.068;2023-05-20T04:48:31;99017.75;;;9.72;100.00
52319;BME280;38258;51.148;14.068;2023-05-20T04:50:59;99023.88;;;9.73;100.00
52319;BME280;38258;51.148;14.068;2023-05-20T04:53:26;99018.47;;;9.85;100.00
52319;BME280;38258;51.148;14.068;2023-05-20T04:55:55;99017.56;;;9.85;100.00
52319;BME280;38258;51.148;14.068;2023-05-20T04:58:22;99028.88;;;9.87;100.00
52319;BME280;38258;51.148;14.068;2023-05-20T05:00:50;99021.72;;;10.00;100.00
52319;BME280;38258;51.148;14.068;2023-05-20T05:03:17;99034.75;;;10.01;100.00
52319;BME280;38258;51.148;14.068;2023-05-20T05:05:44;99019.88;;;10.05;100.00
52319;BME280;38258;51.148;14.068;2023-05-20T05:08:12;99022.44;;;10.08;100.00
52319;BME280;38258;51.148;14.068;2023-05-20T05:10:44;99027.72;;;10.05;100.00
52319;BME280;38258;51.148;14.068;2023-05-20T05:13:11;99024.22;;;10.06;100.00
52319;BME280;38258;51.148;14.068;2023-05-20T05:15:37;99026.06;;;10.01;100.00
52319;BME280;38258;51.148;14.068;2023-05-20T05:18:04;99029.06;;;10.31;100.00
52319;BME280;38258;51.148;14.068;2023-05-20T05:20:32;99031.09;;;10.12;100.00
52319;BME280;38258;51.148;14.068;2023-05-20T05:22:59;99030.91;;;10.26;100.00
52319;BME280;38258;51.148;14.068;2023-05-20T05:25:27;99036.13;;;10.26;100.00
52319;BME280;38258;51.148;14.068;2023-05-20T05:27:54;99038.50;;;10.38;100.00
52319;BME280;38258;51.148;14.068;2023-05-20T05:30:21;99041.31;;;10.27;100.00
52319;BME280;38258;51.148;14.068;2023-05-20T05:32:48;99026.28;;;10.42;100.00
52319;BME280;38258;51.148;14.068;2023-05-20T05:35:15;99028.09;;;10.35;100.00
52319;BME280;38258;51.148;14.068;2023-05-20T05:37:41;99029.91;;;10.31;100.00
52319;BME280;38258;51.148;14.068;2023-05-20T05:40:21;99025.59;;;10.29;100.00
52319;BME280;38258;51.148;14.068;2023-05-20T05:43:01;99021.59;;;10.59;100.00
52319;BME280;38258;51.148;14.068;2023-05-20T05:45:45;99022.94;;;10.30;100.00
52319;BME280;38258;51.148;14.068;2023-05-20T05:48:12;99026.75;;;10.64;100.00
52319;BME280;38258;51.148;14.068;2023-05-20T05:50:38;99024.53;;;10.39;100.00
52319;BME280;38258;51.148;14.068;2023-05-20T05:53:08;99019.19;;;10.47;100.00
52319;BME280;38258;51.148;14.068;2023-05-20T05:55:36;99015.72;;;10.48;100.00
52319;BME280;38258;51.148;14.068;2023-05-20T05:58:04;99020.69;;;10.64;100.00
52319;BME280;38258;51.148;14.068;2023-05-20T06:00:31;99018.69;;;10.77;100.00
52319;BME280;38258;51.148;14.068;2023-05-20T06:02:58;99020.91;;;10.97;100.00
52319;BME280;38258;51.148;14.068;2023-05-20T06:05:31;99015.38;;;11.11;100.00
52319;BME280;38258;51.148;14.068;2023-05-20T06:07:58;99012.47;;;10.82;100.00
52319;BME280;38258;51.148;14.068;2023-05-20T06:10:24;99010.97;;;10.69;100.00
52319;BME280;38258;51.148;14.068;2023-05-20T06:12:51;99006.94;;;10.96;100.00
52319;BME280;38258;51.148;14.068;2023-05-20T06:15:19;98998.34;;;10.91;100.00
52319;BME280;38258;51.148;14.068;2023-05-20T06:17:46;99002.44;;;11.03;100.00
52319;BME280;38258;51.148;14.068;2023-05-20T06:20:14;99002.44;;;11.03;100.00
52319;BME280;38258;51.148;14.068;2023-05-20T06:22:40;98992.13;;;10.95;100.00
52319;BME280;38258;51.148;14.068;2023-05-20T06:25:08;98991.53;;;11.25;100.00
52319;BME280;38258;51.148;14.068;2023-05-20T06:27:35;99010.13;;;11.53;100.00
52319;BME280;38258;51.148;14.068;2023-05-20T06:30:03;99013.19;;;11.33;100.00
52319;BME280;38258;51.148;14.068;2023-05-20T06:32:32;99007.75;;;11.42;100.00
52319;BME280;38258;51.148;14.068;2023-05-20T06:34:59;99010.28;;;11.05;100.00
52319;BME280;38258;51.148;14.068;2023-05-20T06:37:25;99018.41;;;11.33;100.00
52319;BME280;38258;51.148;14.068;2023-05-20T06:39:52;99009.34;;;11.50;100.00
52319;BME280;38258;51.148;14.068;2023-05-20T06:42:19;99008.09;;;11.66;100.00
52319;BME280;38258;51.148;14.068;2023-05-20T06:44:57;99012.44;;;11.67;100.00
52319;BME280;38258;51.148;14.068;2023-05-20T06:47:43;99010.25;;;11.49;100.00
52319;BME280;38258;51.148;14.068;2023-05-20T06:50:12;99009.81;;;11.67;100.00
52319;BME280;38258;51.148;14.068;2023-05-20T06:52:39;99001.91;;;12.08;100.00
52319;BME280;38258;51.148;14.068;2023-05-20T06:55:07;98999.19;;;11.73;100.00
52319;BME280;38258;51.148;14.068;2023-05-20T06:57:34;98999.72;;;11.88;100.00
52319;BME280;38258;51.148;14.068;2023-05-20T07:00:01;99001.56;;;12.22;100.00
52319;BME280;38258;51.148;14.068;2023-05-20T07:02:28;99007.00;;;11.77;100.00
52319;BME280;38258;51.148;14.068;2023-05-20T07:04:57;99004.06;;;11.89;100.00
52319;BME280;38258;51.148;14.068;2023-05-20T07:07:23;98989.47;;;12.16;100.00
52319;BME280;38258;51.148;14.068;2023-05-20T07:09:51;98994.63;;;12.54;100.00
52319;BME280;38258;51.148;14.068;2023-05-20T07:12:19;98994.22;;;12.35;100.00
52319;BME280;38258;51.148;14.068;2023-05-20T07:14:45;98990.59;;;12.06;100.00
52319;BME280;38258;51.148;14.068;2023-05-20T07:17:12;98994.22;;;12.35;100.00
52319;BME280;38258;51.148;14.068;2023-05-20T07:19:39;98980.84;;;12.11;100.00
52319;BME280;38258;51.148;14.068;2023-05-20T07:22:07;98987.00;;;12.10;100.00
52319;BME280;38258;51.148;14.068;2023-05-20T07:24:45;98991.84;;;12.26;100.00
52319;BME280;38258;51.148;14.068;2023-05-20T07:27:12;98992.56;;;11.96;100.00
52319;BME280;38258;51.148;14.068;2023-05-20T07:29:39;98977.72;;;11.95;100.00
52319;BME280;38258;51.148;14.068;2023-05-20T07:32:07;98983.72;;;12.00;100.00
52319;BME280;38258;51.148;14.068;2023-05-20T07:34:36;98987.00;;;12.78;100.00
52319;BME280;38258;51.148;14.068;2023-05-20T07:37:03;98987.66;;;12.53;100.00
52319;BME280;38258;51.148;14.068;2023-05-20T07:39:31;98978.56;;;12.98;100.00
52319;BME280;38258;51.148;14.068;2023-05-20T07:41:58;98982.38;;;12.86;100.00
52319;BME280;38258;51.148;14.068;2023-05-20T07:44:25;98980.31;;;13.28;100.00
52319;BME280;38258;51.148;14.068;2023-05-20T07:46:54;98979.19;;;13.07;100.00
52319;BME280;38258;51.148;14.068;2023-05-20T07:49:21;98977.22;;;13.45;100.00
52319;BME280;38258;51.148;14.068;2023-05-20T07:51:48;98980.53;;;13.20;100.00
52319;BME280;38258;51.148;14.068;2023-05-20T07:54:15;98970.13;;;13.47;100.00
52319;BME280;38258;51.148;14.068;2023-05-20T07:56:46;98984.16;;;14.03;100.00
52319;BME280;38258;51.148;14.068;2023-05-20T07:59:12;98979.38;;;13.88;100.00
52319;BME280;38258;51.148;14.068;2023-05-20T08:01:43;98974.78;;;13.67;100.00
52319;BME280;38258;51.148;14.068;2023-05-20T08:04:11;98978.84;;;13.78;100.00
52319;BME280;38258;51.148;14.068;2023-05-20T08:06:37;98978.91;;;14.28;100.00
52319;BME280;38258;51.148;14.068;2023-05-20T08:09:08;98979.78;;;13.47;100.00
52319;BME280;38258;51.148;14.068;2023-05-20T08:11:39;98972.84;;;13.73;100.00
52319;BME280;38258;51.148;14.068;2023-05-20T08:14:07;98973.41;;;14.09;100.00
52319;BME280;38258;51.148;14.068;2023-05-20T08:16:40;98981.63;;;14.52;100.00
52319;BME280;38258;51.148;14.068;2023-05-20T08:19:07;98971.94;;;15.72;100.00
52319;BME280;38258;51.148;14.068;2023-05-20T08:21:34;98961.31;;;15.05;100.00
52319;BME280;38258;51.148;14.068;2023-05-20T08:24:01;98971.69;;;15.78;100.00
52319;BME280;38258;51.148;14.068;2023-05-20T08:26:28;98954.09;;;15.57;100.00
52319;BME280;38258;51.148;14.068;2023-05-20T08:28:55;98962.97;;;15.76;100.00
52319;BME280;38258;51.148;14.068;2023-05-20T08:31:23;98955.06;;;15.99;100.00
52319;BME280;38258;51.148;14.068;2023-05-20T08:33:50;98964.41;;;14.93;100.00
52319;BME280;38258;51.148;14.068;2023-05-20T08:36:17;98957.41;;;14.92;100.00
52319;BME280;38258;51.148;14.068;2023-05-20T08:38:44;98964.94;;;15.03;100.00
52319;BME280;38258;51.148;14.068;2023-05-20T08:41:11;98958.25;;;14.43;100.00
52319;BME280;38258;51.148;14.068;2023-05-20T08:43:40;98956.84;;;14.58;100.00
52319;BME280;38258;51.148;14.068;2023-05-20T08:46:09;98956.59;;;14.66;100.00
52319;BME280;38258;51.148;14.068;2023-05-20T08:48:38;98956.66;;;16.03;100.00
52319;BME280;38258;51.148;14.068;2023-05-20T08:51:08;98960.53;;;14.27;100.00
52319;BME280;38258;51.148;14.068;2023-05-20T08:53:35;98955.66;;;14.92;100.00
52319;BME280;38258;51.148;14.068;2023-05-20T08:56:01;98949.66;;;16.02;100.00
52319;BME280;38258;51.148;14.068;2023-05-20T08:58:28;98954.75;;;15.39;100.00
52319;BME280;38258;51.148;14.068;2023-05-20T09:00:55;98941.81;;;16.00;100.00
52319;BME280;38258;51.148;14.068;2023-05-20T09:03:23;98950.41;;;16.87;100.00
52319;BME280;38258;51.148;14.068;2023-05-20T09:05:51;98950.53;;;17.43;100.00
52319;BME280;38258;51.148;14.068;2023-05-20T09:08:23;98946.72;;;15.43;100.00
52319;BME280;38258;51.148;14.068;2023-05-20T09:10:51;98957.75;;;16.80;100.00
52319;BME280;38258;51.148;14.068;2023-05-20T09:13:18;98953.19;;;16.44;100.00
52319;BME280;38258;51.148;14.068;2023-05-20T09:15:44;98949.44;;;16.68;100.00
52319;BME280;38258;51.148;14.068;2023-05-20T09:18:12;98951.66;;;17.37;100.00
52319;BME280;38258;51.148;14.068;2023-05-20T09:20:38;98961.50;;;15.91;100.00
52319;BME280;38258;51.148;14.068;2023-05-20T09:23:08;98951.31;;;15.37;100.00
52319;BME280;38258;51.148;14.068;2023-05-20T09:25:36;98961.03;;;16.85;100.00
52319;BME280;38258;51.148;14.068;2023-05-20T09:28:04;98959.94;;;17.67;100.00
52319;BME280;38258;51.148;14.068;2023-05-20T09:30:31;98961.13;;;16.44;100.00
52319;BME280;38258;51.148;14.068;2023-05-20T09:32:59;98969.94;;;16.01;100.00
52319;BME280;38258;51.148;14.068;2023-05-20T09:35:26;98966.06;;;15.65;100.00
52319;BME280;38258;51.148;14.068;2023-05-20T09:37:55;98958.09;;;16.72;100.00
52319;BME280;38258;51.148;14.068;2023-05-20T09:40:24;98950.41;;;15.83;100.00
52319;BME280;38258;51.148;14.068;2023-05-20T09:42:53;98948.09;;;15.07;100.00
52319;BME280;38258;51.148;14.068;2023-05-20T09:45:20;98945.25;;;14.64;100.00
52319;BME280;38258;51.148;14.068;2023-05-20T09:47:49;98956.16;;;15.26;100.00
52319;BME280;38258;51.148;14.068;2023-05-20T09:50:17;98954.31;;;15.28;100.00
52319;BME280;38258;51.148;14.068;2023-05-20T09:52:46;98946.09;;;14.64;100.00
52319;BME280;38258;51.148;14.068;2023-05-20T09:55:14;98952.38;;;16.62;100.00
52319;BME280;38258;51.148;14.068;2023-05-20T09:57:42;98954.38;;;16.76;100.00
52319;BME280;38258;51.148;14.068;2023-05-20T10:00:09;98947.16;;;17.39;100.00
52319;BME280;38258;51.148;14.068;2023-05-20T10:02:40;98935.88;;;15.50;100.00
52319;BME280;38258;51.148;14.068;2023-05-20T10:05:13;98939.56;;;15.91;100.00
52319;BME280;38258;51.148;14.068;2023-05-20T10:08:24;98934.09;;;15.73;100.00
52319;BME280;38258;51.148;14.068;2023-05-20T10:11:00;98926.13;;;15.52;100.00
52319;BME280;38258;51.148;14.068;2023-05-20T10:13:47;98932.13;;;16.01;100.00
52319;BME280;38258;51.148;14.068;2023-05-20T10:16:21;98923.47;;;16.59;100.00
52319;BME280;38258;51.148;14.068;2023-05-20T10:18:59;98909.00;;;16.68;100.00
52319;BME280;38258;51.148;14.068;2023-05-20T10:21:31;98904.06;;;17.74;100.00
52319;BME280;38258;51.148;14.068;2023-05-20T10:24:05;98901.97;;;17.98;100.00
52319;BME280;38258;51.148;14.068;2023-05-20T10:26:35;98896.72;;;16.86;100.00
52319;BME280;38258;51.148;14.068;2023-05-20T10:29:14;98888.66;;;19.02;100.00
52319;BME280;38258;51.148;14.068;2023-05-20T10:31:47;98886.97;;;20.40;95.42
52319;BME280;38258;51.148;14.068;2023-05-20T10:34:15;98895.28;;;20.04;90.15
52319;BME280;38258;51.148;14.068;2023-05-20T10:36:44;98892.66;;;20.19;86.57
52319;BME280;38258;51.148;14.068;2023-05-20T10:39:14;98886.97;;;18.84;100.00
52319;BME280;38258;51.148;14.068;2023-05-20T10:41:42;98890.28;;;20.14;96.53
52319;BME280;38258;51.148;14.068;2023-05-20T10:44:08;98894.47;;;20.76;80.68
52319;BME280;38258;51.148;14.068;2023-05-20T10:46:36;98894.34;;;19.89;88.49
52319;BME280;38258;51.148;14.068;2023-05-20T10:49:03;98895.66;;;20.87;87.63
52319;BME280;38258;51.148;14.068;2023-05-20T10:51:31;98895.56;;;20.00;85.31
52319;BME280;38258;51.148;14.068;2023-05-20T10:54:01;98892.81;;;18.90;93.74
52319;BME280;38258;51.148;14.068;2023-05-20T10:56:28;98884.81;;;19.08;89.96
52319;BME280;38258;51.148;14.068;2023-05-20T10:58:55;98898.28;;;18.54;90.27
52319;BME280;38258;51.148;14.068;2023-05-20T11:01:23;98878.16;;;18.83;88.43
52319;BME280;38258;51.148;14.068;2023-05-20T11:03:53;98877.56;;;19.58;91.80
52319;BME280;38258;51.148;14.068;2023-05-20T11:06:24;98867.31;;;19.52;92.88
52319;BME280;38258;51.148;14.068;2023-05-20T11:08:51;98877.69;;;19.71;86.85
52319;BME280;38258;51.148;14.068;2023-05-20T11:11:19;98877.03;;;20.58;86.22
52319;BME280;38258;51.148;14.068;2023-05-20T11:13:49;98876.63;;;19.43;84.60
52319;BME280;38258;51.148;14.068;2023-05-20T11:16:16;98866.66;;;21.39;81.18
52319;BME280;38258;51.148;14.068;2023-05-20T11:18:43;98870.72;;;20.01;84.33
52319;BME280;38258;51.148;14.068;2023-05-20T11:21:11;98868.50;;;20.38;85.58
52319;BME280;38258;51.148;14.068;2023-05-20T11:23:37;98860.59;;;20.22;78.89
52319;BME280;38258;51.148;14.068;2023-05-20T11:26:04;98861.53;;;20.79;87.62
52319;BME280;38258;51.148;14.068;2023-05-20T11:28:31;98854.72;;;20.75;76.36
52319;BME280;38258;51.148;14.068;2023-05-20T11:30:58;98849.41;;;21.44;78.22
52319;BME280;38258;51.148;14.068;2023-05-20T11:33:25;98849.97;;;20.95;84.25
52319;BME280;38258;51.148;14.068;2023-05-20T11:35:53;98843.53;;;22.20;78.02
52319;BME280;38258;51.148;14.068;2023-05-20T11:38:21;98850.31;;;21.98;75.56
52319;BME280;38258;51.148;14.068;2023-05-20T11:40:51;98837.56;;;21.63;74.27
52319;BME280;38258;51.148;14.068;2023-05-20T11:43:18;98848.34;;;20.34;82.99
52319;BME280;38258;51.148;14.068;2023-05-20T11:45:47;98841.31;;;18.94;87.83
52319;BME280;38258;51.148;14.068;2023-05-20T11:48:14;98831.09;;;20.12;86.49
52319;BME280;38258;51.148;14.068;2023-05-20T11:50:42;98843.53;;;20.41;82.66
52319;BME280;38258;51.148;14.068;2023-05-20T11:53:14;98834.50;;;20.00;80.89
52319;BME280;38258;51.148;14.068;2023-05-20T11:55:46;98830.34;;;21.10;81.43
52319;BME280;38258;51.148;14.068;2023-05-20T11:58:18;98834.53;;;21.55;75.55
52319;BME280;38258;51.148;14.068;2023-05-20T12:00:45;98840.56;;;20.16;80.80
52319;BME280;38258;51.148;14.068;2023-05-20T12:03:12;98835.34;;;20.58;84.71
52319;BME280;38258;51.148;14.068;2023-05-20T12:05:39;98837.72;;;20.48;85.58
52319;BME280;38258;51.148;14.068;2023-05-20T12:08:06;98820.50;;;20.98;86.32
52319;BME280;38258;51.148;14.068;2023-05-20T12:10:33;98827.06;;;20.77;78.62
52319;BME280;38258;51.148;14.068;2023-05-20T12:13:03;98827.81;;;21.77;81.66
52319;BME280;38258;51.148;14.068;2023-05-20T12:15:33;98820.19;;;21.30;88.45
52319;BME280;38258;51.148;14.068;2023-05-20T12:17:59;98824.03;;;20.98;79.05
52319;BME280;38258;51.148;14.068;2023-05-20T12:20:26;98810.50;;;21.97;77.61
52319;BME280;38258;51.148;14.068;2023-05-20T12:22:54;98809.97;;;21.24;80.73
52319;BME280;38258;51.148;14.068;2023-05-20T12:25:22;98812.38;;;20.86;82.49
52319;BME280;38258;51.148;14.068;2023-05-20T12:27:49;98815.16;;;20.12;84.25
52319;BME280;38258;51.148;14.068;2023-05-20T12:30:18;98801.50;;;20.47;83.24
52319;BME280;38258;51.148;14.068;2023-05-20T12:32:46;98804.44;;;21.27;81.08
52319;BME280;38258;51.148;14.068;2023-05-20T12:35:14;98808.97;;;19.97;88.17
52319;BME280;38258;51.148;14.068;2023-05-20T12:37:41;98801.28;;;20.51;85.43
52319;BME280;38258;51.148;14.068;2023-05-20T12:40:10;98795.69;;;21.12;84.25
52319;BME280;38258;51.148;14.068;2023-05-20T12:42:37;98790.06;;;21.57;85.96
52319;BME280;38258;51.148;14.068;2023-05-20T12:45:05;98784.59;;;21.73;77.23
52319;BME280;38258;51.148;14.068;2023-05-20T12:47:34;98787.06;;;20.81;83.53
52319;BME280;38258;51.148;14.068;2023-05-20T12:50:02;98780.41;;;22.21;81.48